Time;durP1;ratioP1;P1;durP2;ratioP2;P2;SDS_P1;SDS_P2;PMS_P1;PMS_P2;Temp;Humidity;BMP_temperature;BMP_pressure;BME280_temperature;BME280_humidity;BME280_pressure;Samples;Min_cycle;Max_cycle;Signal;HPM_P1;HPM_P2
2024/01/10 00:01:27;;;;;;;20.70;10.07;;;-4.00;60.20;;;-1.97;47.44;98405.69;5071518;28;20255;-62
2024/01/10 00:03:55;;;;;;;21.30;10.37;;;-4.10;60.50;;;-1.93;47.09;98406.44;5062462;28;20416;-62
2024/01/10 00:06:23;;;;;;;18.17;10.33;;;-4.00;60.30;;;-1.88;47.13;98407.06;5071780;28;20048;-62
2024/01/10 00:08:51;;;;;;;26.47;11.40;;;-4.00;59.70;;;-1.88;46.86;98407.94;5070160;28;20380;-61
2024/01/10 00:11:19;;;;;;;21.00;12.17;;;-4.00;59.50;;;-1.88;47.12;98407.06;5071236;28;20071;-61
2024/01/10 00:13:46;;;;;;;23.70;11.03;;;-4.00;60.40;;;-1.87;47.23;98399.16;5070466;28;20048;-61
2024/01/10 00:16:14;;;;;;;19.87;10.63;;;-4.00;60.60;;;-1.85;47.24;98399.94;5079005;28;20040;-61
2024/01/10 00:18:42;;;;;;;20.37;9.90;;;-4.00;60.40;;;-1.80;47.27;98405.84;5071340;28;20531;-61
2024/01/10 00:21:11;;;;;;;16.40;9.87;;;-3.90;60.10;;;-1.75;47.02;98399.56;5070943;28;20048;-61
2024/01/10 00:23:38;;;;;;;17.80;9.53;;;-3.90;59.70;;;-1.74;47.29;98399.50;5069357;28;20045;-61
2024/01/10 00:26:06;;;;;;;20.47;8.80;;;-3.80;60.10;;;-1.71;46.78;98395.91;5071375;28;20045;-61
2024/01/10 00:28:34;;;;;;;16.97;8.50;;;-3.80;59.80;;;-1.68;47.02;98399.25;5071434;28;20044;-61
2024/01/10 00:31:01;;;;;;;22.70;9.20;;;-3.70;59.80;;;-1.63;47.45;98397.28;5071248;28;20051;-61
2024/01/10 00:33:29;;;;;;;19.23;10.23;;;-3.70;59.30;;;-1.62;46.87;98385.06;5071450;28;20503;-61
2024/01/10 00:35:57;;;;;;;17.97;9.60;;;-3.70;59.70;;;-1.62;47.13;98388.50;5063183;28;20049;-61
2024/01/10 00:38:25;;;;;;;20.10;9.97;;;-3.70;60.10;;;-1.60;47.37;98389.28;5069459;28;20447;-61
2024/01/10 00:40:52;;;;;;;26.83;11.20;;;-3.60;60.00;;;-1.55;47.46;98391.72;5070887;28;20059;-61
2024/01/10 00:43:20;;;;;;;21.73;10.50;;;-3.60;59.90;;;-1.51;47.51;98390.69;5070749;28;20107;-61
2024/01/10 00:45:48;;;;;;;31.97;13.47;;;-3.50;59.70;;;-1.49;47.15;98385.34;5070986;28;20044;-61
2024/01/10 00:48:17;;;;;;;29.33;13.47;;;-3.50;59.30;;;-1.48;47.54;98387.91;5070963;28;20045;-61
2024/01/10 00:50:45;;;;;;;32.90;13.73;;;-3.50;58.50;;;-1.47;47.31;98381.78;5070631;28;20044;-61
2024/01/10 00:53:13;;;;;;;25.77;13.13;;;-3.50;58.70;;;-1.44;47.52;98381.63;5069467;28;20447;-61
2024/01/10 00:55:41;;;;;;;21.03;11.73;;;-3.50;58.50;;;-1.40;46.77;98387.56;5070833;28;20487;-61
2024/01/10 00:58:09;;;;;;;15.40;8.57;;;-3.40;58.70;;;-1.37;46.64;98386.59;5070642;28;20036;-61
2024/01/10 01:00:36;;;;;;;18.97;8.90;;;-3.40;57.80;;;-1.35;46.53;98392.59;5069281;28;20045;-61
2024/01/10 01:03:04;;;;;;;16.57;8.27;;;-3.40;57.50;;;-1.35;46.74;98388.22;5070551;28;20048;-61
2024/01/10 01:05:32;;;;;;;16.97;8.53;;;-3.40;57.80;;;-1.34;46.32;98391.66;5070820;28;20415;-61
2024/01/10 01:08:00;;;;;;;19.57;8.50;;;-3.40;57.70;;;-1.31;47.02;98395.00;5070846;28;20056;-61
2024/01/10 01:10:28;;;;;;;16.00;7.83;;;-3.40;57.90;;;-1.31;46.26;98392.38;5070496;28;20044;-61
2024/01/10 01:12:56;;;;;;;17.97;8.70;;;-3.40;58.00;;;-1.29;47.06;98400.16;5070210;28;20041;-61
2024/01/10 01:15:23;;;;;;;21.20;9.50;;;-3.40;58.00;;;-1.28;46.26;98397.50;5069307;28;20051;-61
2024/01/10 01:17:51;;;;;;;19.00;9.40;;;-3.40;58.10;;;-1.24;46.86;98399.03;5070714;28;20040;-61
2024/01/10 01:20:18;;;;;;;19.27;9.90;;;-3.30;58.20;;;-1.23;47.18;98398.09;5070634;28;20044;-61
2024/01/10 01:22:46;;;;;;;18.37;9.97;;;-3.30;58.40;;;-1.19;46.93;98404.03;5066807;28;20056;-61
2024/01/10 01:25:14;;;;;;;15.23;8.80;;;-3.20;58.30;;;-1.17;46.69;98399.59;5070761;28;20067;-61
2024/01/10 01:27:41;;;;;;;15.77;9.00;;;-3.20;58.40;;;-1.14;46.50;98401.22;5070831;28;20527;-61
2024/01/10 01:30:11;;;;;;;21.77;8.67;;;-3.20;58.30;;;-1.14;46.75;98407.31;5069081;28;20045;-61
2024/01/10 01:32:39;;;;;;;18.73;9.17;;;-3.20;58.10;;;-1.13;47.20;98406.38;5070275;28;20044;-61
2024/01/10 01:35:06;;;;;;;20.17;9.07;;;-3.20;58.10;;;-1.12;46.87;98404.63;5070581;28;20499;-61
2024/01/10 01:37:34;;;;;;;18.67;8.63;;;-3.20;57.90;;;-1.11;46.35;98409.75;5070688;28;20044;-61
2024/01/10 01:40:02;;;;;;;18.63;9.37;;;-3.20;58.00;;;-1.10;46.54;98400.19;5070541;28;20044;-61
2024/01/10 01:42:30;;;;;;;19.57;10.53;;;-3.20;58.30;;;-1.12;46.80;98402.88;5072800;28;20055;-60
2024/01/10 01:44:57;;;;;;;24.67;11.63;;;-3.20;58.10;;;-1.12;46.70;98400.25;5073975;28;20067;-61
2024/01/10 01:47:27;;;;;;;20.97;10.53;;;-3.20;58.80;;;-1.11;47.14;98399.31;5073173;28;20063;-61
2024/01/10 01:49:54;;;;;;;23.97;10.00;;;-3.20;58.70;;;-1.12;47.14;98402.88;5074526;28;20055;-61
2024/01/10 01:52:23;;;;;;;22.43;10.93;;;-3.20;59.20;;;-1.12;47.30;98395.03;5074494;28;20488;-61
2024/01/10 01:54:51;;;;;;;17.53;9.07;;;-3.20;59.50;;;-1.13;47.14;98395.91;5075475;28;20067;-50
2024/01/10 01:57:18;;;;;;;16.50;8.57;;;-3.30;59.60;;;-1.14;46.86;98391.63;5074167;28;20352;-52
2024/01/10 01:59:46;;;;;;;18.20;8.37;;;-3.30;59.40;;;-1.14;46.79;98386.41;5074181;28;20088;-51
2024/01/10 02:02:16;;;;;;;15.83;8.10;;;-3.30;59.50;;;-1.14;47.44;98388.16;5072779;28;20127;-51
2024/01/10 02:04:46;;;;;;;14.23;8.97;;;-3.30;59.90;;;-1.14;47.33;98393.38;5072738;28;20530;-52
2024/01/10 02:07:13;;;;;;;13.27;7.83;;;-3.30;60.00;;;-1.13;47.11;98393.31;5074030;28;20419;-50
2024/01/10 02:09:41;;;;;;;16.53;8.37;;;-3.30;60.10;;;-1.13;47.00;98393.31;5074053;28;20411;-52
2024/01/10 02:12:09;;;;;;;19.80;8.70;;;-3.20;60.30;;;-1.13;46.97;98388.09;5073669;28;20413;-52
2024/01/10 02:14:37;;;;;;;18.60;8.90;;;-3.30;60.50;;;-1.14;47.48;98388.16;5073925;28;20055;-51
2024/01/10 02:17:05;;;;;;;15.37;7.90;;;-3.30;61.00;;;-1.16;47.51;98388.25;5073862;28;20522;-48
2024/01/10 02:19:34;;;;;;;16.30;7.40;;;-3.30;61.00;;;-1.17;47.30;98389.16;5073760;28;20048;-49
2024/01/10 02:22:04;;;;;;;14.10;7.43;;;-3.40;60.90;;;-1.18;47.40;98387.47;5073512;28;20040;-50
2024/01/10 02:24:31;;;;;;;14.47;7.50;;;-3.40;61.30;;;-1.16;47.81;98377.78;5073760;28;20051;-50
2024/01/10 02:27:00;;;;;;;21.93;7.57;;;-3.30;61.50;;;-1.14;47.82;98373.34;5073446;28;20595;-50
2024/01/10 02:29:28;;;;;;;14.17;7.80;;;-3.20;61.60;;;-1.09;47.85;98367.88;5073808;28;20044;-49
2024/01/10 02:31:55;;;;;;;15.80;7.93;;;-3.20;61.30;;;-1.09;47.45;98366.13;5073286;28;20040;-51
2024/01/10 02:34:23;;;;;;;14.93;6.93;;;-3.20;61.40;;;-1.10;47.47;98366.22;5073421;28;20412;-50
2024/01/10 02:36:51;;;;;;;13.87;6.90;;;-3.20;61.90;;;-1.09;47.99;98358.28;5073527;28;20064;-49
2024/01/10 02:39:18;;;;;;;16.80;8.50;;;-3.20;61.80;;;-1.10;47.90;98369.66;5073362;28;20051;-53
2024/01/10 02:41:46;;;;;;;17.13;7.07;;;-3.20;61.70;;;-1.11;47.33;98360.13;5071970;28;20499;-50
2024/01/10 02:44:14;;;;;;;14.10;7.57;;;-3.30;61.60;;;-1.14;47.49;98362.88;5073442;28;20047;-53
2024/01/10 02:46:42;;;;;;;15.20;6.43;;;-3.30;61.50;;;-1.14;47.97;98360.28;5073475;28;20048;-50
2024/01/10 02:49:09;;;;;;;13.83;7.40;;;-3.30;61.30;;;-1.13;47.80;98366.34;5073335;28;20234;-52
2024/01/10 02:51:37;;;;;;;16.67;7.17;;;-3.30;61.10;;;-1.14;47.35;98365.50;5072759;28;20420;-52
2024/01/10 02:54:05;;;;;;;16.57;7.67;;;-3.30;61.20;;;-1.16;47.74;98364.72;5071847;28;20416;-50
2024/01/10 02:56:32;;;;;;;19.53;9.40;;;-3.30;61.10;;;-1.21;47.80;98366.69;5073192;28;20045;-52
2024/01/10 02:59:00;;;;;;;15.20;8.37;;;-3.40;61.30;;;-1.25;47.32;98363.38;5072905;28;20040;-49
2024/01/10 03:01:28;;;;;;;15.60;7.57;;;-3.50;61.70;;;-1.26;47.85;98360.81;5072580;28;20150;-52
2024/01/10 03:03:56;;;;;;;16.63;8.30;;;-3.50;61.70;;;-1.27;47.16;98364.38;5072772;28;20414;-48
2024/01/10 03:06:24;;;;;;;13.33;7.63;;;-3.40;61.80;;;-1.27;47.45;98348.69;5073200;28;20514;-50
2024/01/10 03:08:52;;;;;;;16.17;7.53;;;-3.50;61.80;;;-1.29;47.34;98348.75;5072979;28;20531;-51
2024/01/10 03:11:19;;;;;;;13.77;7.47;;;-3.50;62.40;;;-1.29;47.87;98356.59;5072589;28;20045;-52
2024/01/10 03:13:49;;;;;;;15.80;7.43;;;-3.50;62.50;;;-1.30;47.49;98346.19;5071382;28;20041;-48
2024/01/10 03:16:18;;;;;;;14.20;7.07;;;-3.50;62.20;;;-1.35;47.98;98354.25;5072819;28;20044;-52
2024/01/10 03:18:46;;;;;;;20.73;9.17;;;-3.50;61.50;;;-1.34;47.71;98349.88;5072695;28;20464;-49
2024/01/10 03:21:14;;;;;;;16.37;9.80;;;-3.50;61.40;;;-1.37;47.47;98348.25;5071213;28;20037;-52
2024/01/10 03:23:41;;;;;;;20.27;9.23;;;-3.60;61.20;;;-1.36;47.39;98342.09;5072071;28;20040;-50
2024/01/10 03:26:10;;;;;;;15.77;8.43;;;-3.50;61.30;;;-1.39;47.56;98332.66;5072492;28;20049;-50
2024/01/10 03:28:37;;;;;;;18.37;7.90;;;-3.50;61.50;;;-1.41;47.84;98344.09;5072627;28;20045;-48
2024/01/10 03:31:05;;;;;;;14.47;7.23;;;-3.60;61.50;;;-1.45;47.75;98337.31;5070726;28;20419;-52
2024/01/10 03:33:33;;;;;;;16.83;7.70;;;-3.60;62.00;;;-1.48;47.57;98334.84;5072493;28;20180;-50
2024/01/10 03:36:00;;;;;;;14.43;7.73;;;-3.60;62.10;;;-1.47;47.82;98341.75;5072362;28;20041;-52
2024/01/10 03:38:28;;;;;;;15.30;7.90;;;-3.60;61.70;;;-1.47;47.42;98337.38;5072181;28;20119;-53
2024/01/10 03:40:55;;;;;;;12.87;7.67;;;-3.60;62.10;;;-1.49;47.56;98336.59;5072114;28;20051;-51
2024/01/10 03:43:23;;;;;;;17.63;7.70;;;-3.60;62.00;;;-1.50;47.98;98340.13;5070888;28;20215;-50
2024/01/10 03:45:51;;;;;;;17.67;8.43;;;-3.60;62.50;;;-1.50;47.64;98336.66;5072152;28;20048;-52
2024/01/10 03:48:18;;;;;;;14.80;8.20;;;-3.70;62.50;;;-1.47;47.94;98340.00;5072217;28;20044;-49
2024/01/10 03:50:46;;;;;;;12.67;7.83;;;-3.70;62.70;;;-1.47;47.79;98347.00;5071843;28;20044;-50
2024/01/10 03:53:14;;;;;;;17.20;8.27;;;-3.70;62.30;;;-1.45;48.02;98339.94;5071727;28;20291;-49
2024/01/10 03:55:41;;;;;;;16.40;7.90;;;-3.50;62.40;;;-1.40;47.79;98343.16;5072127;28;20047;-53
2024/01/10 03:58:09;;;;;;;16.07;7.83;;;-3.50;62.50;;;-1.36;48.29;98333.44;5070763;28;20044;-52
2024/01/10 04:00:37;;;;;;;17.03;8.93;;;-3.50;62.10;;;-1.35;47.74;98338.59;5071404;28;20044;-52
2024/01/10 04:03:04;;;;;;;14.47;7.83;;;-3.50;62.10;;;-1.32;48.22;98337.59;5071698;28;20048;-51
2024/01/10 04:05:32;;;;;;;15.67;8.03;;;-3.50;62.30;;;-1.30;48.21;98340.97;5071427;28;20056;-49
2024/01/10 04:08:00;;;;;;;14.23;8.03;;;-3.40;62.20;;;-1.29;47.75;98347.91;5071859;28;20048;-48
2024/01/10 04:10:28;;;;;;;17.70;8.10;;;-3.40;61.70;;;-1.28;48.24;98346.97;5071475;28;20404;-49
2024/01/10 04:12:55;;;;;;;24.20;8.13;;;-3.40;61.70;;;-1.27;48.26;98351.28;5071462;28;20421;-51
2024/01/10 04:15:23;;;;;;;14.07;7.73;;;-3.40;61.60;;;-1.23;48.21;98348.47;5069957;28;20423;-50
2024/01/10 04:17:50;;;;;;;14.17;7.93;;;-3.40;61.40;;;-1.22;48.42;98349.34;5071606;28;20043;-50
2024/01/10 04:20:18;;;;;;;14.13;7.30;;;-3.40;61.50;;;-1.23;48.10;98347.63;5063248;28;20041;-53
2024/01/10 04:22:46;;;;;;;15.97;7.07;;;-3.40;62.10;;;-1.22;48.02;98351.94;5067959;28;20040;-52
2024/01/10 04:25:14;;;;;;;16.47;7.53;;;-3.40;62.50;;;-1.21;47.84;98356.22;5071191;28;20036;-52
2024/01/10 04:27:41;;;;;;;17.87;7.77;;;-3.40;62.40;;;-1.19;48.26;98364.84;5071259;28;20435;-51
2024/01/10 04:30:10;;;;;;;16.63;7.80;;;-3.30;62.30;;;-1.17;47.93;98354.34;5069848;28;20052;-53
2024/01/10 04:32:37;;;;;;;14.23;7.60;;;-3.30;62.50;;;-1.17;48.51;98355.19;5071202;28;20048;-53
2024/01/10 04:35:06;;;;;;;16.10;8.40;;;-3.30;62.80;;;-1.13;47.82;98358.50;5070687;28;20440;-53
2024/01/10 04:37:34;;;;;;;16.90;7.83;;;-3.30;62.40;;;-1.11;48.01;98344.44;5071269;28;20055;-54
2024/01/10 04:40:01;;;;;;;15.87;7.17;;;-3.20;62.70;;;-1.08;47.78;98343.47;5070962;28;20036;-52
2024/01/10 04:42:31;;;;;;;22.90;11.43;;;-3.20;62.80;;;-1.06;48.08;98341.63;5071438;28;20040;-52
2024/01/10 04:44:58;;;;;;;18.27;11.70;;;-3.10;62.80;;;-1.07;48.05;98345.97;5070905;28;20044;-53
2024/01/10 04:47:26;;;;;;;17.20;9.37;;;-3.10;62.40;;;-1.04;48.51;98345.00;5071169;28;20516;-52
2024/01/10 04:49:54;;;;;;;37.43;15.67;;;-3.10;62.10;;;-1.02;48.39;98340.56;5071337;28;20194;-51
2024/01/10 04:52:21;;;;;;;25.30;11.57;;;-3.10;62.80;;;-1.01;48.27;98345.72;5063180;28;20412;-49
2024/01/10 04:54:49;;;;;;;22.07;9.70;;;-3.10;61.50;;;-1.02;48.75;98346.63;5070659;28;20044;-53
2024/01/10 04:57:17;;;;;;;18.07;9.70;;;-3.10;62.00;;;-1.01;48.10;98342.22;5070982;28;20569;-50
2024/01/10 04:59:45;;;;;;;25.07;12.20;;;-3.10;62.20;;;-1.00;48.45;98342.16;5071057;28;20419;-52
2024/01/10 05:02:12;;;;;;;18.50;11.03;;;-3.00;62.30;;;-0.97;48.71;98346.41;5070895;28;20047;-49
2024/01/10 05:04:40;;;;;;;18.67;10.30;;;-3.00;62.80;;;-0.94;48.02;98346.25;5070777;28;20052;-48
2024/01/10 05:07:08;;;;;;;18.77;9.60;;;-3.00;62.80;;;-0.94;48.53;98343.66;5070772;28;20049;-51
2024/01/10 05:09:36;;;;;;;15.97;8.73;;;-3.00;62.70;;;-0.92;48.61;98341.81;5070434;28;20499;-52
2024/01/10 05:12:04;;;;;;;17.77;9.97;;;-3.00;62.70;;;-0.90;48.82;98350.44;5070335;28;20054;-48
2024/01/10 05:14:32;;;;;;;18.83;8.57;;;-3.00;62.30;;;-0.88;48.66;98353.81;5069009;28;20052;-49
2024/01/10 05:17:00;;;;;;;15.83;8.00;;;-3.00;62.40;;;-0.87;48.41;98352.91;5070029;28;20072;-52
2024/01/10 05:19:27;;;;;;;14.33;7.93;;;-3.00;62.40;;;-0.85;48.48;98355.47;5070935;28;20051;-48
2024/01/10 05:21:55;;;;;;;16.40;8.20;;;-2.90;62.30;;;-0.85;47.98;98360.69;5070390;28;20048;-49
2024/01/10 05:24:23;;;;;;;16.00;8.10;;;-3.00;62.70;;;-0.85;48.87;98351.06;5069804;28;20063;-50
2024/01/10 05:26:51;;;;;;;13.37;8.47;;;-2.90;62.90;;;-0.86;48.28;98349.34;5070495;28;20053;-50
2024/01/10 05:29:19;;;;;;;18.73;8.23;;;-3.00;63.00;;;-0.85;48.00;98345.84;5070812;28;20052;-50
2024/01/10 05:31:47;;;;;;;16.77;9.10;;;-3.00;62.90;;;-0.83;48.68;98345.78;5068554;28;20057;-48
2024/01/10 05:34:16;;;;;;;13.37;8.03;;;-3.00;63.00;;;-0.83;48.22;98349.22;5070306;28;20041;-50
2024/01/10 05:36:44;;;;;;;16.67;8.27;;;-3.00;62.80;;;-0.84;48.62;98346.69;5086257;28;20428;-50
2024/01/10 05:39:15;;;;;;;16.97;8.87;;;-3.00;62.80;;;-0.82;48.47;98358.75;5070331;28;20095;-50
2024/01/10 05:41:44;;;;;;;19.70;10.03;;;-3.00;62.80;;;-0.81;48.56;98351.78;5070381;28;20045;-49
2024/01/10 05:44:14;;;;;;;22.90;10.00;;;-2.90;62.50;;;-0.81;48.54;98346.53;5070236;28;20052;-51
2024/01/10 05:46:42;;;;;;;29.53;11.77;;;-3.00;62.50;;;-0.80;48.48;98345.59;5070594;28;20048;-51
2024/01/10 05:49:10;;;;;;;18.57;9.40;;;-3.00;62.40;;;-0.81;48.02;98347.38;5070286;28;20060;-50
2024/01/10 05:51:38;;;;;;;16.10;8.73;;;-3.00;61.90;;;-0.84;48.33;98351.91;5069845;28;20063;-53
2024/01/10 05:54:07;;;;;;;16.47;8.07;;;-3.00;61.70;;;-0.86;47.96;98345.91;5070130;28;20393;-52
2024/01/10 05:56:34;;;;;;;18.53;8.13;;;-3.00;61.80;;;-0.88;48.49;98351.19;5070270;28;20040;-51
2024/01/10 05:59:02;;;;;;;16.87;8.17;;;-3.00;61.50;;;-0.91;48.55;98353.09;5070234;28;20037;-53
2024/01/10 06:01:30;;;;;;;22.27;9.23;;;-3.00;61.40;;;-0.92;47.74;98352.25;5073239;28;20036;-53
2024/01/10 06:03:58;;;;;;;15.50;8.73;;;-3.10;61.00;;;-0.92;47.54;98354.03;5069057;28;20500;-51
2024/01/10 06:06:26;;;;;;;19.77;8.93;;;-3.10;61.00;;;-0.95;47.87;98356.78;5070382;28;20036;-53
2024/01/10 06:08:53;;;;;;;14.83;8.87;;;-3.20;61.00;;;-1.00;48.31;98350.00;5070341;28;20420;-52
2024/01/10 06:11:21;;;;;;;16.47;9.03;;;-3.20;60.70;;;-1.02;47.41;98358.84;5070092;28;20523;-50
2024/01/10 06:13:49;;;;;;;12.53;7.73;;;-3.20;60.40;;;-1.05;48.03;98358.97;5070097;28;20036;-53
2024/01/10 06:16:24;;;;;;;14.17;7.63;;;-3.30;60.60;;;-1.09;47.89;98360.06;5070043;28;20051;-49
2024/01/10 06:18:52;;;;;;;17.47;7.73;;;-3.30;60.80;;;-1.12;47.87;98361.06;5070236;28;20510;-54
2024/01/10 06:21:20;;;;;;;13.53;8.10;;;-3.30;60.90;;;-1.14;48.11;98355.03;5069821;28;20044;-49
2024/01/10 06:23:47;;;;;;;17.27;8.30;;;-3.40;60.70;;;-1.14;47.53;98359.41;5069963;28;20045;-49
2024/01/10 06:26:15;;;;;;;20.07;9.00;;;-3.30;60.80;;;-1.16;47.59;98363.84;5069240;28;20048;-51
2024/01/10 06:28:43;;;;;;;17.23;8.03;;;-3.40;60.70;;;-1.19;47.71;98363.06;5072567;28;20040;-49
2024/01/10 06:31:11;;;;;;;15.67;9.07;;;-3.30;60.80;;;-1.19;47.80;98357.84;5073278;28;20071;-51
2024/01/10 06:33:39;;;;;;;17.10;9.40;;;-3.30;60.30;;;-1.20;47.23;98350.09;5073620;28;20040;-52
2024/01/10 06:36:07;;;;;;;20.53;9.90;;;-3.40;60.70;;;-1.20;47.33;98342.28;5073144;28;20033;-54
2024/01/10 06:38:35;;;;;;;15.60;8.30;;;-3.40;60.60;;;-1.22;47.52;98351.94;5073687;28;20040;-49
2024/01/10 06:41:13;;;;;;;16.63;8.37;;;-3.30;60.70;;;-1.23;47.38;98364.13;5073060;28;20055;-49
2024/01/10 06:43:41;;;;;;;21.87;11.00;;;-3.40;60.50;;;-1.28;47.34;98363.53;5066513;28;20040;-49
2024/01/10 06:46:10;;;;;;;25.77;12.80;;;-3.50;61.10;;;-1.30;47.96;98359.25;5073150;28;20041;-49
2024/01/10 06:48:38;;;;;;;24.23;12.70;;;-3.50;61.10;;;-1.33;47.91;98362.88;5073192;28;20036;-48
2024/01/10 06:51:16;;;;;;;21.93;10.20;;;-3.50;61.10;;;-1.33;47.62;98368.09;5072977;28;20040;-49
2024/01/10 06:53:43;;;;;;;19.53;9.03;;;-3.50;61.40;;;-1.34;48.01;98371.63;5071464;28;20045;-50
2024/01/10 06:56:11;;;;;;;20.90;8.97;;;-3.50;61.50;;;-1.38;47.92;98380.50;5072891;28;20040;-49
2024/01/10 06:58:39;;;;;;;20.27;9.47;;;-3.50;61.80;;;-1.39;47.67;98379.66;5073060;28;20054;-53
2024/01/10 07:01:14;;;;;;;21.63;10.57;;;-3.60;61.70;;;-1.38;47.66;98380.50;5072842;28;20036;-52
2024/01/10 07:03:42;;;;;;;14.60;8.33;;;-3.50;61.80;;;-1.37;48.06;98379.59;5073081;28;20044;-53
2024/01/10 07:06:14;;;;;;;17.93;9.20;;;-3.60;62.00;;;-1.37;48.17;98379.59;5072655;28;20047;-50
2024/01/10 07:08:46;;;;;;;15.83;8.43;;;-3.60;62.10;;;-1.39;47.88;98371.84;5073056;28;20041;-51
2024/01/10 07:11:14;;;;;;;18.93;9.80;;;-3.60;62.00;;;-1.40;48.36;98378.00;5072443;28;20036;-52
2024/01/10 07:13:43;;;;;;;25.13;11.07;;;-3.50;62.80;;;-1.39;48.55;98384.06;5072780;28;20044;-49
2024/01/10 07:16:10;;;;;;;18.83;9.83;;;-3.60;62.60;;;-1.41;47.68;98381.50;5072751;28;20047;-50
2024/01/10 07:18:38;;;;;;;19.20;9.60;;;-3.60;62.70;;;-1.41;47.57;98376.28;5072876;28;20036;-52
2024/01/10 07:21:09;;;;;;;15.57;8.47;;;-3.50;62.80;;;-1.41;48.16;98391.13;5072436;28;20036;-51
2024/01/10 07:23:40;;;;;;;18.37;8.43;;;-3.60;62.30;;;-1.41;47.88;98378.88;5061267;28;20063;-51
2024/01/10 07:26:07;;;;;;;15.20;7.87;;;-3.60;62.30;;;-1.42;48.49;98371.97;5072491;28;20040;-51
2024/01/10 07:28:35;;;;;;;16.73;9.00;;;-3.60;62.50;;;-1.42;47.78;98387.63;5064526;28;20052;-52
2024/01/10 07:31:03;;;;;;;19.67;8.93;;;-3.60;62.20;;;-1.44;47.91;98388.63;5071937;28;20056;-49
2024/01/10 07:33:31;;;;;;;16.13;10.10;;;-3.60;62.10;;;-1.45;48.19;98384.34;5072187;28;20058;-49
2024/01/10 07:36:00;;;;;;;19.63;9.77;;;-3.60;62.50;;;-1.47;48.24;98394.00;5072352;28;20052;-54
2024/01/10 07:38:28;;;;;;;15.20;8.47;;;-3.70;62.50;;;-1.48;48.02;98393.13;5071058;28;20037;-52
2024/01/10 07:40:56;;;;;;;18.60;9.67;;;-3.70;62.60;;;-1.50;47.72;98397.56;5071300;28;20040;-52
2024/01/10 07:43:23;;;;;;;21.37;10.00;;;-3.70;62.50;;;-1.49;47.80;98393.19;5071861;28;20044;-49
2024/01/10 07:45:52;;;;;;;21.43;10.43;;;-3.70;62.20;;;-1.51;48.27;98408.94;5072082;28;20040;-54
2024/01/10 07:48:21;;;;;;;24.67;9.77;;;-3.70;62.60;;;-1.52;48.11;98407.25;5072047;28;20489;-49
2024/01/10 07:50:49;;;;;;;25.03;12.73;;;-3.70;62.50;;;-1.50;47.82;98404.56;5071722;28;20048;-48
2024/01/10 07:53:17;;;;;;;23.07;11.57;;;-3.60;62.00;;;-1.49;48.40;98411.47;5071934;28;20040;-47
2024/01/10 07:55:44;;;;;;;30.87;12.53;;;-3.60;61.50;;;-1.51;47.76;98416.78;5071625;28;20040;-51
2024/01/10 07:58:12;;;;;;;22.70;12.53;;;-3.60;61.30;;;-1.50;48.01;98417.63;5072153;28;20523;-50
2024/01/10 08:00:40;;;;;;;28.00;11.83;;;-3.60;61.50;;;-1.49;48.10;98424.53;5063606;28;20490;-49
2024/01/10 08:03:07;;;;;;;24.90;11.77;;;-3.60;61.80;;;-1.47;47.77;98422.72;5070540;28;20049;-48
2024/01/10 08:05:35;;;;;;;26.27;10.67;;;-3.60;61.50;;;-1.44;47.87;98427.81;5071896;28;20045;-48
2024/01/10 08:08:03;;;;;;;25.03;12.13;;;-3.50;61.30;;;-1.40;48.34;98416.28;5070491;28;20052;-47
2024/01/10 08:10:32;;;;;;;24.13;11.10;;;-3.50;61.50;;;-1.39;47.83;98418.84;5071544;28;20075;-48
2024/01/10 08:13:01;;;;;;;39.07;16.50;;;-3.50;61.50;;;-1.36;47.82;98422.25;5071396;28;20033;-54
2024/01/10 08:15:30;;;;;;;42.77;18.17;;;-3.50;61.40;;;-1.31;47.86;98425.50;5071516;28;20077;-51
2024/01/10 08:17:57;;;;;;;34.70;16.40;;;-3.40;61.50;;;-1.27;48.38;98419.22;5071643;28;20051;-50
2024/01/10 08:20:25;;;;;;;24.73;14.10;;;-3.40;61.10;;;-1.23;48.18;98428.63;5070687;28;20097;-52
2024/01/10 08:22:53;;;;;;;23.57;12.13;;;-3.30;61.40;;;-1.21;48.08;98432.84;5069793;28;20060;-48
2024/01/10 08:25:21;;;;;;;21.70;10.27;;;-3.30;60.80;;;-1.14;48.53;98422.13;5071064;28;20051;-51
2024/01/10 08:27:49;;;;;;;15.47;8.07;;;-3.20;60.80;;;-1.10;48.26;98428.94;5069700;28;20044;-52
2024/01/10 08:30:16;;;;;;;15.87;8.43;;;-3.10;60.40;;;-1.07;48.11;98432.22;5069892;28;20499;-50
2024/01/10 08:33:10;;;;;;;17.80;8.40;;;-3.10;59.80;;;-1.02;47.74;98424.19;5071310;28;20051;-49
2024/01/10 08:35:38;;;;;;;17.73;8.17;;;-3.00;59.80;;;-1.01;48.24;98425.88;5070986;28;20036;-49
2024/01/10 08:38:07;;;;;;;16.17;8.87;;;-3.00;59.80;;;-0.95;48.32;98433.47;5071275;28;20063;-50
2024/01/10 08:40:35;;;;;;;14.97;7.90;;;-2.90;59.50;;;-0.88;47.96;98450.53;5070948;28;20040;-50
2024/01/10 08:43:03;;;;;;;17.50;10.30;;;-2.80;59.60;;;-0.82;48.19;98437.19;5070911;28;20044;-51
2024/01/10 08:45:31;;;;;;;19.40;8.87;;;-2.80;59.70;;;-0.81;48.15;98446.75;5071184;28;20044;-49
2024/01/10 08:47:59;;;;;;;17.60;9.40;;;-2.80;59.60;;;-0.77;48.17;98449.22;5071312;28;20048;-52
2024/01/10 08:50:26;;;;;;;16.10;8.73;;;-2.80;59.80;;;-0.75;47.91;98450.84;5071779;28;20049;-49
2024/01/10 08:52:54;;;;;;;19.77;7.97;;;-2.80;59.90;;;-0.69;47.96;98447.09;5074766;28;20047;-49
2024/01/10 08:55:22;;;;;;;16.07;8.90;;;-2.70;59.70;;;-0.69;47.70;98445.31;5073955;28;20048;-49
2024/01/10 08:57:49;;;;;;;16.60;9.17;;;-2.70;59.80;;;-0.65;47.50;98440.81;5086566;28;20044;-48
2024/01/10 09:00:17;;;;;;;17.20;8.87;;;-2.70;59.50;;;-0.63;48.14;98444.19;5070898;28;20036;-51
2024/01/10 09:02:45;;;;;;;16.13;8.47;;;-2.60;59.70;;;-0.64;48.35;98440.72;5061535;28;20475;-48
2024/01/10 09:05:12;;;;;;;21.53;9.07;;;-2.70;60.10;;;-0.62;48.20;98446.75;5070895;28;20051;-52
2024/01/10 09:07:42;;;;;;;14.50;9.17;;;-2.70;60.20;;;-0.62;48.27;98449.34;5071377;28;20051;-50
2024/01/10 09:10:10;;;;;;;16.80;9.40;;;-2.70;60.00;;;-0.63;47.50;98450.25;5056928;28;20048;-49
2024/01/10 09:12:38;;;;;;;14.90;8.77;;;-2.70;60.00;;;-0.63;48.00;98452.88;5083038;28;20053;-51
2024/01/10 09:15:08;;;;;;;20.83;9.50;;;-2.70;60.20;;;-0.61;47.72;98455.44;5070691;28;20040;-50
2024/01/10 09:17:35;;;;;;;18.13;9.70;;;-2.70;60.20;;;-0.62;47.60;98456.31;5063142;28;20056;-49
2024/01/10 09:20:04;;;;;;;25.10;11.30;;;-2.70;59.80;;;-0.58;47.93;98464.88;5070207;28;20036;-48
2024/01/10 09:22:31;;;;;;;29.87;15.00;;;-2.70;60.50;;;-0.60;47.93;98463.22;5071241;28;20478;-51
2024/01/10 09:25:03;;;;;;;26.27;13.07;;;-2.60;60.60;;;-0.57;48.09;98462.22;5068635;28;20287;-48
2024/01/10 09:27:33;;;;;;;24.13;12.67;;;-2.60;60.50;;;-0.54;48.00;98462.06;5067544;28;20051;-47
2024/01/10 09:30:02;;;;;;;23.07;11.70;;;-2.60;60.40;;;-0.54;48.10;98462.06;5070759;28;20473;-47
2024/01/10 09:32:30;;;;;;;20.97;12.10;;;-2.50;59.80;;;-0.52;47.57;98456.78;5069330;28;20052;-47
2024/01/10 09:34:58;;;;;;;21.37;9.23;;;-2.50;59.80;;;-0.50;47.62;98466.25;5070097;28;20044;-47
2024/01/10 09:37:26;;;;;;;21.63;10.77;;;-2.50;59.70;;;-0.50;47.65;98474.09;5070619;28;20045;-48
2024/01/10 09:39:53;;;;;;;81.17;33.97;;;-2.50;59.90;;;-0.50;47.32;98466.25;5070657;28;20072;-49
2024/01/10 09:42:25;;;;;;;43.03;19.07;;;-2.50;59.60;;;-0.46;47.65;98467.78;5067429;28;20048;-51
2024/01/10 09:44:53;;;;;;;28.77;12.70;;;-2.40;60.60;;;-0.46;47.19;98473.03;5063101;28;20037;-50
2024/01/10 09:47:21;;;;;;;21.23;11.83;;;-2.50;59.70;;;-0.48;47.88;98480.09;5060691;28;20040;-52
2024/01/10 09:49:49;;;;;;;19.43;11.13;;;-2.40;59.40;;;-0.50;48.15;98474.09;5062512;28;20045;-52
2024/01/10 09:52:27;;;;;;;21.73;12.43;;;-2.50;59.50;;;-0.46;48.23;98469.56;5070295;28;20052;-52
2024/01/10 09:54:57;;;;;;;23.23;11.60;;;-2.40;59.80;;;-0.43;47.68;98474.63;5063192;28;20052;-51
2024/01/10 09:57:25;;;;;;;22.13;11.67;;;-2.40;59.80;;;-0.43;47.37;98474.63;5070531;28;20048;-51
2024/01/10 09:59:54;;;;;;;27.03;11.80;;;-2.30;59.50;;;-0.40;47.77;98469.28;5070682;28;20075;-48
2024/01/10 10:02:23;;;;;;;19.80;11.57;;;-2.30;59.20;;;-0.38;48.08;98469.19;5070550;28;20041;-48
2024/01/10 10:05:02;;;;;;;23.90;12.10;;;-2.30;59.20;;;-0.35;48.16;98466.41;5072548;28;20188;-47
2024/01/10 10:07:30;;;;;;;23.17;12.13;;;-2.30;59.20;;;-0.33;47.89;98464.56;5073042;28;20048;-52
2024/01/10 10:09:58;;;;;;;24.10;11.83;;;-2.20;58.80;;;-0.30;47.30;98464.44;5074279;28;20056;-51
2024/01/10 10:12:50;;;;;;;24.67;13.57;;;-2.20;58.70;;;-0.23;48.08;98465.84;5074047;28;20045;-48
2024/01/10 10:15:26;;;;;;;24.53;12.73;;;-2.20;58.40;;;-0.23;47.93;98460.63;5069640;28;20048;-49